sensor_id;sensor_type;location;lat;lon;timestamp;temperature;humidity
4509;DHT22;2267;48.816;9.230;2022-09-09T00:07:45;19.60;92.50
4509;DHT22;2267;48.816;9.230;2022-09-09T00:10:38;19.60;92.60
4509;DHT22;2267;48.816;9.230;2022-09-09T00:13:32;19.50;92.60
4509;DHT22;2267;48.816;9.230;2022-09-09T00:21:33;19.50;92.60
4509;DHT22;2267;48.816;9.230;2022-09-09T00:24:08;19.40;92.80
4509;DHT22;2267;48.816;9.230;2022-09-09T00:26:42;19.50;92.80
4509;DHT22;2267;48.816;9.230;2022-09-09T00:29:16;19.40;92.70
4509;DHT22;2267;48.816;9.230;2022-09-09T00:31:46;19.40;92.50
4509;DHT22;2267;48.816;9.230;2022-09-09T00:34:18;19.40;92.40
4509;DHT22;2267;48.816;9.230;2022-09-09T00:36:48;19.50;92.40
4509;DHT22;2267;48.816;9.230;2022-09-09T00:39:31;19.40;92.30
4509;DHT22;2267;48.816;9.230;2022-09-09T00:42:14;19.40;92.40
4509;DHT22;2267;48.816;9.230;2022-09-09T00:44:56;19.40;92.60
4509;DHT22;2267;48.816;9.230;2022-09-09T00:47:49;19.40;92.60
4509;DHT22;2267;48.816;9.230;2022-09-09T00:50:37;19.40;92.50
4509;DHT22;2267;48.816;9.230;2022-09-09T00:56:14;19.40;92.50
4509;DHT22;2267;48.816;9.230;2022-09-09T00:58:57;19.40;92.50
4509;DHT22;2267;48.816;9.230;2022-09-09T01:01:27;19.40;92.40
4509;DHT22;2267;48.816;9.230;2022-09-09T01:03:54;19.40;92.40
4509;DHT22;2267;48.816;9.230;2022-09-09T01:06:30;19.30;92.40
4509;DHT22;2267;48.816;9.230;2022-09-09T01:11:55;19.40;92.40
4509;DHT22;2267;48.816;9.230;2022-09-09T01:17:14;19.40;92.40
4509;DHT22;2267;48.816;9.230;2022-09-09T01:20:02;19.30;92.20
4509;DHT22;2267;48.816;9.230;2022-09-09T01:23:04;19.40;92.20
4509;DHT22;2267;48.816;9.230;2022-09-09T01:28:13;19.30;92.20
4509;DHT22;2267;48.816;9.230;2022-09-09T01:30:42;19.30;92.10
4509;DHT22;2267;48.816;9.230;2022-09-09T01:33:17;19.30;92.20
4509;DHT22;2267;48.816;9.230;2022-09-09T01:38:28;19.30;92.00
4509;DHT22;2267;48.816;9.230;2022-09-09T01:40:55;19.30;92.00
4509;DHT22;2267;48.816;9.230;2022-09-09T01:43:24;19.30;91.80
4509;DHT22;2267;48.816;9.230;2022-09-09T01:45:53;19.40;91.70
4509;DHT22;2267;48.816;9.230;2022-09-09T01:48:22;19.30;91.60
4509;DHT22;2267;48.816;9.230;2022-09-09T01:50:49;19.30;91.70
4509;DHT22;2267;48.816;9.230;2022-09-09T01:53:18;19.30;91.60
4509;DHT22;2267;48.816;9.230;2022-09-09T02:01:24;19.30;91.80
4509;DHT22;2267;48.816;9.230;2022-09-09T02:03:57;19.30;91.80
4509;DHT22;2267;48.816;9.230;2022-09-09T02:06:25;19.30;92.10
4509;DHT22;2267;48.816;9.230;2022-09-09T02:08:56;19.30;91.90
4509;DHT22;2267;48.816;9.230;2022-09-09T02:11:26;19.30;91.80
4509;DHT22;2267;48.816;9.230;2022-09-09T02:13:58;19.30;91.90
4509;DHT22;2267;48.816;9.230;2022-09-09T02:16:31;19.30;92.00
4509;DHT22;2267;48.816;9.230;2022-09-09T02:19:21;19.30;91.90
4509;DHT22;2267;48.816;9.230;2022-09-09T02:21:54;19.30;91.80
4509;DHT22;2267;48.816;9.230;2022-09-09T02:24:22;19.30;91.60
4509;DHT22;2267;48.816;9.230;2022-09-09T02:26:52;19.30;91.80
4509;DHT22;2267;48.816;9.230;2022-09-09T02:29:31;19.30;91.90
4509;DHT22;2267;48.816;9.230;2022-09-09T02:32:01;19.20;91.70
4509;DHT22;2267;48.816;9.230;2022-09-09T02:34:32;19.20;91.70
4509;DHT22;2267;48.816;9.230;2022-09-09T02:37:03;19.20;92.00
4509;DHT22;2267;48.816;9.230;2022-09-09T02:39:30;19.20;91.90
4509;DHT22;2267;48.816;9.230;2022-09-09T02:41:57;19.20;91.80
4509;DHT22;2267;48.816;9.230;2022-09-09T02:44:23;19.20;91.90
4509;DHT22;2267;48.816;9.230;2022-09-09T02:52:38;19.20;92.40
4509;DHT22;2267;48.816;9.230;2022-09-09T02:55:26;19.20;92.30
4509;DHT22;2267;48.816;9.230;2022-09-09T02:57:56;19.10;92.50
4509;DHT22;2267;48.816;9.230;2022-09-09T03:00:27;19.20;92.50
4509;DHT22;2267;48.816;9.230;2022-09-09T03:02:54;19.10;92.70
4509;DHT22;2267;48.816;9.230;2022-09-09T03:05:21;19.10;92.60
4509;DHT22;2267;48.816;9.230;2022-09-09T03:07:48;19.10;92.70
4509;DHT22;2267;48.816;9.230;2022-09-09T03:10:17;19.10;92.50
4509;DHT22;2267;48.816;9.230;2022-09-09T03:12:44;19.00;92.40
4509;DHT22;2267;48.816;9.230;2022-09-09T03:15:10;19.00;92.70
4509;DHT22;2267;48.816;9.230;2022-09-09T03:17:37;19.00;92.50
4509;DHT22;2267;48.816;9.230;2022-09-09T03:20:04;19.00;92.40
4509;DHT22;2267;48.816;9.230;2022-09-09T03:22:31;19.00;92.30
4509;DHT22;2267;48.816;9.230;2022-09-09T03:24:58;19.00;92.20
4509;DHT22;2267;48.816;9.230;2022-09-09T03:27:24;19.00;92.20
4509;DHT22;2267;48.816;9.230;2022-09-09T03:29:51;18.90;92.30
4509;DHT22;2267;48.816;9.230;2022-09-09T03:32:19;18.90;92.40
4509;DHT22;2267;48.816;9.230;2022-09-09T03:34:48;18.90;92.60
4509;DHT22;2267;48.816;9.230;2022-09-09T03:37:19;18.90;92.70
4509;DHT22;2267;48.816;9.230;2022-09-09T03:39:46;18.80;92.80
4509;DHT22;2267;48.816;9.230;2022-09-09T03:42:14;18.80;93.00
4509;DHT22;2267;48.816;9.230;2022-09-09T03:44:48;18.80;93.00
4509;DHT22;2267;48.816;9.230;2022-09-09T03:47:20;18.70;93.10
4509;DHT22;2267;48.816;9.230;2022-09-09T03:49:48;18.70;93.10
4509;DHT22;2267;48.816;9.230;2022-09-09T03:52:15;18.70;93.30
4509;DHT22;2267;48.816;9.230;2022-09-09T03:54:48;18.70;93.20
4509;DHT22;2267;48.816;9.230;2022-09-09T03:57:15;18.70;93.20
4509;DHT22;2267;48.816;9.230;2022-09-09T03:59:43;18.70;93.20
4509;DHT22;2267;48.816;9.230;2022-09-09T04:02:10;18.70;93.10
4509;DHT22;2267;48.816;9.230;2022-09-09T04:04:37;18.60;93.10
4509;DHT22;2267;48.816;9.230;2022-09-09T04:07:03;18.60;93.10
4509;DHT22;2267;48.816;9.230;2022-09-09T04:09:33;18.60;93.20
4509;DHT22;2267;48.816;9.230;2022-09-09T04:12:01;18.60;93.30
4509;DHT22;2267;48.816;9.230;2022-09-09T04:14:28;18.60;93.30
4509;DHT22;2267;48.816;9.230;2022-09-09T04:16:55;18.60;93.30
4509;DHT22;2267;48.816;9.230;2022-09-09T04:19:22;18.50;93.30
4509;DHT22;2267;48.816;9.230;2022-09-09T04:21:49;18.50;93.30
4509;DHT22;2267;48.816;9.230;2022-09-09T04:24:18;18.50;93.40
4509;DHT22;2267;48.816;9.230;2022-09-09T04:26:45;18.40;93.40
4509;DHT22;2267;48.816;9.230;2022-09-09T04:29:12;18.40;93.40
4509;DHT22;2267;48.816;9.230;2022-09-09T04:31:38;18.40;93.60
4509;DHT22;2267;48.816;9.230;2022-09-09T04:34:11;18.30;93.50
4509;DHT22;2267;48.816;9.230;2022-09-09T04:36:38;18.30;93.60
4509;DHT22;2267;48.816;9.230;2022-09-09T04:39:07;18.30;93.60
4509;DHT22;2267;48.816;9.230;2022-09-09T04:41:34;18.30;93.70
4509;DHT22;2267;48.816;9.230;2022-09-09T04:44:02;18.20;93.80
4509;DHT22;2267;48.816;9.230;2022-09-09T04:46:29;18.20;93.80
4509;DHT22;2267;48.816;9.230;2022-09-09T04:48:56;18.20;94.00
4509;DHT22;2267;48.816;9.230;2022-09-09T04:51:22;18.20;93.90
4509;DHT22;2267;48.816;9.230;2022-09-09T04:53:49;18.20;94.00
4509;DHT22;2267;48.816;9.230;2022-09-09T04:56:18;18.20;93.90
4509;DHT22;2267;48.816;9.230;2022-09-09T04:58:44;18.20;93.90
4509;DHT22;2267;48.816;9.230;2022-09-09T05:01:13;18.20;93.90
4509;DHT22;2267;48.816;9.230;2022-09-09T05:03:40;18.20;93.90
4509;DHT22;2267;48.816;9.230;2022-09-09T05:06:09;18.20;94.00
4509;DHT22;2267;48.816;9.230;2022-09-09T05:08:38;18.20;94.10
4509;DHT22;2267;48.816;9.230;2022-09-09T05:13:46;18.20;94.10
4509;DHT22;2267;48.816;9.230;2022-09-09T05:16:14;18.20;94.10
4509;DHT22;2267;48.816;9.230;2022-09-09T05:18:41;18.20;94.20
4509;DHT22;2267;48.816;9.230;2022-09-09T05:21:14;18.20;94.20
4509;DHT22;2267;48.816;9.230;2022-09-09T05:23:41;18.20;94.20
4509;DHT22;2267;48.816;9.230;2022-09-09T05:26:12;18.20;94.20
4509;DHT22;2267;48.816;9.230;2022-09-09T05:28:43;18.30;94.20
4509;DHT22;2267;48.816;9.230;2022-09-09T05:31:11;18.30;94.20
4509;DHT22;2267;48.816;9.230;2022-09-09T05:33:40;18.30;94.10
4509;DHT22;2267;48.816;9.230;2022-09-09T05:36:42;18.30;94.20
4509;DHT22;2267;48.816;9.230;2022-09-09T05:39:01;18.30;94.20
4509;DHT22;2267;48.816;9.230;2022-09-09T05:41:28;18.40;94.10
4509;DHT22;2267;48.816;9.230;2022-09-09T05:43:56;18.40;94.10
4509;DHT22;2267;48.816;9.230;2022-09-09T05:46:23;18.40;94.00
4509;DHT22;2267;48.816;9.230;2022-09-09T05:48:52;18.40;94.40
4509;DHT22;2267;48.816;9.230;2022-09-09T05:51:25;18.50;94.30
4509;DHT22;2267;48.816;9.230;2022-09-09T05:53:53;18.50;94.20
4509;DHT22;2267;48.816;9.230;2022-09-09T05:56:23;18.50;94.10
4509;DHT22;2267;48.816;9.230;2022-09-09T05:58:52;18.50;94.00
4509;DHT22;2267;48.816;9.230;2022-09-09T06:01:29;18.50;94.10
4509;DHT22;2267;48.816;9.230;2022-09-09T06:03:56;18.50;94.10
4509;DHT22;2267;48.816;9.230;2022-09-09T06:06:26;18.60;94.00
4509;DHT22;2267;48.816;9.230;2022-09-09T06:08:56;18.60;94.00
4509;DHT22;2267;48.816;9.230;2022-09-09T06:11:29;18.60;94.00
4509;DHT22;2267;48.816;9.230;2022-09-09T06:13:58;18.60;94.00
4509;DHT22;2267;48.816;9.230;2022-09-09T06:16:27;18.60;94.00
4509;DHT22;2267;48.816;9.230;2022-09-09T06:18:55;18.60;94.00
4509;DHT22;2267;48.816;9.230;2022-09-09T06:21:25;18.60;94.00
4509;DHT22;2267;48.816;9.230;2022-09-09T06:23:52;18.60;94.10
4509;DHT22;2267;48.816;9.230;2022-09-09T06:26:31;18.60;94.10
4509;DHT22;2267;48.816;9.230;2022-09-09T06:28:59;18.60;94.30
4509;DHT22;2267;48.816;9.230;2022-09-09T06:31:27;18.60;94.30
4509;DHT22;2267;48.816;9.230;2022-09-09T06:33:58;18.70;94.40
4509;DHT22;2267;48.816;9.230;2022-09-09T06:36:27;18.70;94.40
4509;DHT22;2267;48.816;9.230;2022-09-09T06:38:55;18.70;94.40
4509;DHT22;2267;48.816;9.230;2022-09-09T06:41:24;18.70;94.30
4509;DHT22;2267;48.816;9.230;2022-09-09T06:43:53;18.70;94.30
4509;DHT22;2267;48.816;9.230;2022-09-09T06:46:22;18.80;94.40
4509;DHT22;2267;48.816;9.230;2022-09-09T06:48:49;18.80;94.40
4509;DHT22;2267;48.816;9.230;2022-09-09T06:51:19;18.80;94.50
4509;DHT22;2267;48.816;9.230;2022-09-09T06:53:49;18.80;94.60
4509;DHT22;2267;48.816;9.230;2022-09-09T06:58:46;18.90;94.60
4509;DHT22;2267;48.816;9.230;2022-09-09T07:01:18;18.90;94.60
4509;DHT22;2267;48.816;9.230;2022-09-09T07:03:51;18.90;94.60
4509;DHT22;2267;48.816;9.230;2022-09-09T07:06:22;19.00;94.70
4509;DHT22;2267;48.816;9.230;2022-09-09T07:08:54;19.00;94.60
4509;DHT22;2267;48.816;9.230;2022-09-09T07:11:24;19.00;94.60
4509;DHT22;2267;48.816;9.230;2022-09-09T07:13:53;19.10;94.60
4509;DHT22;2267;48.816;9.230;2022-09-09T07:16:22;19.10;94.60
4509;DHT22;2267;48.816;9.230;2022-09-09T07:18:52;19.10;94.70
4509;DHT22;2267;48.816;9.230;2022-09-09T07:21:22;19.20;94.70
4509;DHT22;2267;48.816;9.230;2022-09-09T07:23:48;19.20;94.70
4509;DHT22;2267;48.816;9.230;2022-09-09T07:26:21;19.20;94.70
4509;DHT22;2267;48.816;9.230;2022-09-09T07:28:48;19.30;94.70
4509;DHT22;2267;48.816;9.230;2022-09-09T07:31:24;19.30;94.60
4509;DHT22;2267;48.816;9.230;2022-09-09T07:33:51;19.40;94.50
4509;DHT22;2267;48.816;9.230;2022-09-09T07:36:29;19.40;94.30
4509;DHT22;2267;48.816;9.230;2022-09-09T07:39:10;19.40;94.40
4509;DHT22;2267;48.816;9.230;2022-09-09T07:41:42;19.40;94.40
4509;DHT22;2267;48.816;9.230;2022-09-09T07:44:11;19.50;94.40
4509;DHT22;2267;48.816;9.230;2022-09-09T07:46:39;19.50;94.40
4509;DHT22;2267;48.816;9.230;2022-09-09T07:49:06;19.50;94.30
4509;DHT22;2267;48.816;9.230;2022-09-09T07:51:36;19.50;94.20
4509;DHT22;2267;48.816;9.230;2022-09-09T07:54:06;19.60;94.40
4509;DHT22;2267;48.816;9.230;2022-09-09T07:56:33;19.60;94.30
4509;DHT22;2267;48.816;9.230;2022-09-09T07:59:01;19.60;94.30
4509;DHT22;2267;48.816;9.230;2022-09-09T08:01:31;19.60;94.40
4509;DHT22;2267;48.816;9.230;2022-09-09T08:04:00;19.60;94.40
4509;DHT22;2267;48.816;9.230;2022-09-09T08:06:31;19.70;94.60
4509;DHT22;2267;48.816;9.230;2022-09-09T08:08:59;19.70;94.60
4509;DHT22;2267;48.816;9.230;2022-09-09T08:11:28;19.80;94.40
4509;DHT22;2267;48.816;9.230;2022-09-09T08:13:56;19.90;94.10
4509;DHT22;2267;48.816;9.230;2022-09-09T08:16:31;20.00;94.20
4509;DHT22;2267;48.816;9.230;2022-09-09T08:18:59;20.00;94.00
4509;DHT22;2267;48.816;9.230;2022-09-09T08:21:30;20.10;94.00
4509;DHT22;2267;48.816;9.230;2022-09-09T08:23:59;20.20;94.10
4509;DHT22;2267;48.816;9.230;2022-09-09T08:26:32;20.20;94.10
4509;DHT22;2267;48.816;9.230;2022-09-09T08:29:01;20.30;93.90
4509;DHT22;2267;48.816;9.230;2022-09-09T08:31:32;20.40;93.70
4509;DHT22;2267;48.816;9.230;2022-09-09T08:34:00;20.40;93.80
4509;DHT22;2267;48.816;9.230;2022-09-09T08:36:32;20.50;93.60
4509;DHT22;2267;48.816;9.230;2022-09-09T08:39:03;20.60;93.40
4509;DHT22;2267;48.816;9.230;2022-09-09T08:54:50;21.10;92.50
4509;DHT22;2267;48.816;9.230;2022-09-09T08:57:23;21.10;91.80
4509;DHT22;2267;48.816;9.230;2022-09-09T08:59:55;21.10;91.60
4509;DHT22;2267;48.816;9.230;2022-09-09T09:02:29;21.20;91.50
4509;DHT22;2267;48.816;9.230;2022-09-09T09:05:09;21.20;91.70
4509;DHT22;2267;48.816;9.230;2022-09-09T09:10:45;21.40;91.10
4509;DHT22;2267;48.816;9.230;2022-09-09T09:13:18;21.60;90.30
4509;DHT22;2267;48.816;9.230;2022-09-09T09:15:53;21.60;90.00
4509;DHT22;2267;48.816;9.230;2022-09-09T09:18:23;21.60;89.70
4509;DHT22;2267;48.816;9.230;2022-09-09T09:21:10;21.60;88.30
4509;DHT22;2267;48.816;9.230;2022-09-09T09:23:45;21.60;88.10
4509;DHT22;2267;48.816;9.230;2022-09-09T09:26:14;21.50;87.60
4509;DHT22;2267;48.816;9.230;2022-09-09T09:28:41;21.50;86.30
4509;DHT22;2267;48.816;9.230;2022-09-09T09:31:12;21.50;85.60
4509;DHT22;2267;48.816;9.230;2022-09-09T09:33:45;21.40;85.00
4509;DHT22;2267;48.816;9.230;2022-09-09T09:36:14;21.40;85.70
4509;DHT22;2267;48.816;9.230;2022-09-09T09:38:57;21.30;86.50
4509;DHT22;2267;48.816;9.230;2022-09-09T09:41:46;21.20;86.50
4509;DHT22;2267;48.816;9.230;2022-09-09T09:44:31;21.10;86.00
4509;DHT22;2267;48.816;9.230;2022-09-09T09:47:15;21.10;85.90
4509;DHT22;2267;48.816;9.230;2022-09-09T09:49:55;21.00;85.50
4509;DHT22;2267;48.816;9.230;2022-09-09T09:52:29;21.00;85.00
4509;DHT22;2267;48.816;9.230;2022-09-09T09:54:57;20.90;84.90
4509;DHT22;2267;48.816;9.230;2022-09-09T09:57:33;20.90;84.90
4509;DHT22;2267;48.816;9.230;2022-09-09T10:00:18;21.00;85.00
4509;DHT22;2267;48.816;9.230;2022-09-09T10:02:46;21.10;84.80
4509;DHT22;2267;48.816;9.230;2022-09-09T10:05:25;21.20;85.00
4509;DHT22;2267;48.816;9.230;2022-09-09T10:10:50;21.40;82.80
4509;DHT22;2267;48.816;9.230;2022-09-09T10:19:09;21.80;81.70
4509;DHT22;2267;48.816;9.230;2022-09-09T10:22:02;22.00;81.60
4509;DHT22;2267;48.816;9.230;2022-09-09T10:30:21;22.40;81.90
4509;DHT22;2267;48.816;9.230;2022-09-09T10:38:45;22.70;83.40
4509;DHT22;2267;48.816;9.230;2022-09-09T10:52:11;23.30;83.10
4509;DHT22;2267;48.816;9.230;2022-09-09T10:54:58;23.20;82.60
4509;DHT22;2267;48.816;9.230;2022-09-09T11:00:00;23.00;82.40
4509;DHT22;2267;48.816;9.230;2022-09-09T11:02:33;22.80;82.50
4509;DHT22;2267;48.816;9.230;2022-09-09T11:12:56;23.20;83.00
4509;DHT22;2267;48.816;9.230;2022-09-09T11:15:30;23.30;82.60
4509;DHT22;2267;48.816;9.230;2022-09-09T11:18:01;23.30;82.60
4509;DHT22;2267;48.816;9.230;2022-09-09T11:20:29;23.30;82.60
4509;DHT22;2267;48.816;9.230;2022-09-09T11:23:03;23.20;82.20
4509;DHT22;2267;48.816;9.230;2022-09-09T11:25:36;23.00;79.30
4509;DHT22;2267;48.816;9.230;2022-09-09T11:34:00;22.60;78.10
4509;DHT22;2267;48.816;9.230;2022-09-09T11:42:07;22.20;78.30
4509;DHT22;2267;48.816;9.230;2022-09-09T11:44:34;22.10;78.60
4509;DHT22;2267;48.816;9.230;2022-09-09T11:47:01;22.10;78.90
4509;DHT22;2267;48.816;9.230;2022-09-09T11:49:39;22.00;79.00
4509;DHT22;2267;48.816;9.230;2022-09-09T11:52:12;22.00;79.00
4509;DHT22;2267;48.816;9.230;2022-09-09T11:54:48;21.90;78.20
4509;DHT22;2267;48.816;9.230;2022-09-09T11:57:33;21.80;78.50
4509;DHT22;2267;48.816;9.230;2022-09-09T12:00:02;21.90;78.90
4509;DHT22;2267;48.816;9.230;2022-09-09T12:02:29;21.90;79.00
4509;DHT22;2267;48.816;9.230;2022-09-09T12:05:02;21.90;78.80
4509;DHT22;2267;48.816;9.230;2022-09-09T12:07:39;21.90;78.80
4509;DHT22;2267;48.816;9.230;2022-09-09T12:10:30;21.90;79.50
4509;DHT22;2267;48.816;9.230;2022-09-09T12:13:28;22.10;79.60
4509;DHT22;2267;48.816;9.230;2022-09-09T12:15:57;22.20;77.30
4509;DHT22;2267;48.816;9.230;2022-09-09T12:18:38;22.30;77.10
4509;DHT22;2267;48.816;9.230;2022-09-09T12:23:52;22.60;76.00
4509;DHT22;2267;48.816;9.230;2022-09-09T12:26:47;22.90;75.20
4509;DHT22;2267;48.816;9.230;2022-09-09T12:29:39;23.20;74.50
4509;DHT22;2267;48.816;9.230;2022-09-09T12:32:24;23.10;73.00
4509;DHT22;2267;48.816;9.230;2022-09-09T12:34:59;23.40;72.10
4509;DHT22;2267;48.816;9.230;2022-09-09T12:37:36;23.80;71.30
4509;DHT22;2267;48.816;9.230;2022-09-09T12:42:31;24.50;70.10
4509;DHT22;2267;48.816;9.230;2022-09-09T12:45:17;24.60;70.00
4509;DHT22;2267;48.816;9.230;2022-09-09T12:47:53;24.40;68.20
4509;DHT22;2267;48.816;9.230;2022-09-09T12:50:26;24.30;67.70
4509;DHT22;2267;48.816;9.230;2022-09-09T12:52:56;24.20;66.70
4509;DHT22;2267;48.816;9.230;2022-09-09T12:55:29;24.00;67.10
4509;DHT22;2267;48.816;9.230;2022-09-09T12:57:58;23.90;65.90
4509;DHT22;2267;48.816;9.230;2022-09-09T13:00:26;23.90;66.80
4509;DHT22;2267;48.816;9.230;2022-09-09T13:02:58;23.90;66.50
4509;DHT22;2267;48.816;9.230;2022-09-09T13:08:09;24.30;67.00
4509;DHT22;2267;48.816;9.230;2022-09-09T13:10:59;24.50;66.50
4509;DHT22;2267;48.816;9.230;2022-09-09T13:13:41;24.70;66.10
4509;DHT22;2267;48.816;9.230;2022-09-09T13:16:23;25.00;66.60
4509;DHT22;2267;48.816;9.230;2022-09-09T13:18:52;25.20;65.30
4509;DHT22;2267;48.816;9.230;2022-09-09T13:21:19;25.10;63.90
4509;DHT22;2267;48.816;9.230;2022-09-09T13:23:57;25.10;64.50
4509;DHT22;2267;48.816;9.230;2022-09-09T13:26:26;25.00;65.20
4509;DHT22;2267;48.816;9.230;2022-09-09T13:28:54;24.90;65.50
4509;DHT22;2267;48.816;9.230;2022-09-09T13:31:30;24.70;65.50
4509;DHT22;2267;48.816;9.230;2022-09-09T13:33:59;24.50;66.60
4509;DHT22;2267;48.816;9.230;2022-09-09T13:36:36;24.30;66.10
4509;DHT22;2267;48.816;9.230;2022-09-09T13:39:03;24.30;66.60
4509;DHT22;2267;48.816;9.230;2022-09-09T13:41:35;24.40;66.80
4509;DHT22;2267;48.816;9.230;2022-09-09T13:44:03;24.70;67.00
4509;DHT22;2267;48.816;9.230;2022-09-09T13:46:40;24.90;67.10
4509;DHT22;2267;48.816;9.230;2022-09-09T13:52:13;25.10;65.20
4509;DHT22;2267;48.816;9.230;2022-09-09T13:54:34;25.00;65.10
4509;DHT22;2267;48.816;9.230;2022-09-09T13:57:01;24.80;65.10
4509;DHT22;2267;48.816;9.230;2022-09-09T13:59:28;24.60;65.20
4509;DHT22;2267;48.816;9.230;2022-09-09T14:02:15;24.50;65.60
4509;DHT22;2267;48.816;9.230;2022-09-09T14:04:44;24.50;65.20
4509;DHT22;2267;48.816;9.230;2022-09-09T14:07:15;24.50;64.90
4509;DHT22;2267;48.816;9.230;2022-09-09T14:09:42;24.60;64.20
4509;DHT22;2267;48.816;9.230;2022-09-09T14:12:13;24.70;63.10
4509;DHT22;2267;48.816;9.230;2022-09-09T14:14:42;24.70;62.50
4509;DHT22;2267;48.816;9.230;2022-09-09T14:17:09;24.70;63.10
4509;DHT22;2267;48.816;9.230;2022-09-09T14:19:36;24.60;62.90
4509;DHT22;2267;48.816;9.230;2022-09-09T14:22:03;24.60;62.60
4509;DHT22;2267;48.816;9.230;2022-09-09T14:24:30;24.60;62.90
4509;DHT22;2267;48.816;9.230;2022-09-09T14:26:57;24.80;63.30
4509;DHT22;2267;48.816;9.230;2022-09-09T14:29:24;25.00;62.20
4509;DHT22;2267;48.816;9.230;2022-09-09T14:31:53;25.00;61.60
4509;DHT22;2267;48.816;9.230;2022-09-09T14:34:19;24.90;61.00
4509;DHT22;2267;48.816;9.230;2022-09-09T14:36:46;24.80;59.70
4509;DHT22;2267;48.816;9.230;2022-09-09T14:39:13;24.90;59.80
4509;DHT22;2267;48.816;9.230;2022-09-09T14:41:40;25.00;59.70
4509;DHT22;2267;48.816;9.230;2022-09-09T14:44:07;25.10;59.70
4509;DHT22;2267;48.816;9.230;2022-09-09T14:46:34;25.20;59.90
4509;DHT22;2267;48.816;9.230;2022-09-09T14:49:01;25.30;59.70
4509;DHT22;2267;48.816;9.230;2022-09-09T14:51:28;25.30;60.10
4509;DHT22;2267;48.816;9.230;2022-09-09T14:53:57;25.20;59.50
4509;DHT22;2267;48.816;9.230;2022-09-09T14:56:27;25.20;59.60
4509;DHT22;2267;48.816;9.230;2022-09-09T14:58:55;25.20;59.30
4509;DHT22;2267;48.816;9.230;2022-09-09T15:01:23;25.10;59.20
4509;DHT22;2267;48.816;9.230;2022-09-09T15:04:02;25.10;59.20
4509;DHT22;2267;48.816;9.230;2022-09-09T15:06:31;25.20;59.50
4509;DHT22;2267;48.816;9.230;2022-09-09T15:09:00;25.20;59.40
4509;DHT22;2267;48.816;9.230;2022-09-09T15:11:33;25.00;59.00
4509;DHT22;2267;48.816;9.230;2022-09-09T15:14:05;24.90;58.80
4509;DHT22;2267;48.816;9.230;2022-09-09T15:16:32;24.80;59.00
4509;DHT22;2267;48.816;9.230;2022-09-09T15:19:00;24.80;58.60
4509;DHT22;2267;48.816;9.230;2022-09-09T15:21:33;24.70;58.50
4509;DHT22;2267;48.816;9.230;2022-09-09T15:24:01;24.70;59.00
4509;DHT22;2267;48.816;9.230;2022-09-09T15:26:28;24.60;58.90
4509;DHT22;2267;48.816;9.230;2022-09-09T15:28:56;24.50;59.40
4509;DHT22;2267;48.816;9.230;2022-09-09T15:31:28;24.40;59.60
4509;DHT22;2267;48.816;9.230;2022-09-09T15:33:56;24.40;60.00
4509;DHT22;2267;48.816;9.230;2022-09-09T15:36:40;24.30;60.20
4509;DHT22;2267;48.816;9.230;2022-09-09T15:39:09;24.30;60.50
4509;DHT22;2267;48.816;9.230;2022-09-09T15:41:39;24.20;60.40
4509;DHT22;2267;48.816;9.230;2022-09-09T15:44:06;24.10;60.70
4509;DHT22;2267;48.816;9.230;2022-09-09T15:46:42;24.10;61.10
4509;DHT22;2267;48.816;9.230;2022-09-09T15:49:11;24.10;60.90
4509;DHT22;2267;48.816;9.230;2022-09-09T15:51:40;24.00;60.90
4509;DHT22;2267;48.816;9.230;2022-09-09T15:54:14;23.90;61.10
4509;DHT22;2267;48.816;9.230;2022-09-09T15:56:44;23.90;61.50
4509;DHT22;2267;48.816;9.230;2022-09-09T15:59:10;23.80;61.70
4509;DHT22;2267;48.816;9.230;2022-09-09T16:01:38;23.80;62.00
4509;DHT22;2267;48.816;9.230;2022-09-09T16:04:08;23.70;62.40
4509;DHT22;2267;48.816;9.230;2022-09-09T16:06:36;23.70;62.50
4509;DHT22;2267;48.816;9.230;2022-09-09T16:09:05;23.70;62.70
4509;DHT22;2267;48.816;9.230;2022-09-09T16:11:35;23.60;63.00
4509;DHT22;2267;48.816;9.230;2022-09-09T16:14:02;23.60;62.80
4509;DHT22;2267;48.816;9.230;2022-09-09T16:16:30;23.50;63.10
4509;DHT22;2267;48.816;9.230;2022-09-09T16:18:59;23.50;63.40
4509;DHT22;2267;48.816;9.230;2022-09-09T16:21:29;23.50;64.70
4509;DHT22;2267;48.816;9.230;2022-09-09T16:23:58;23.40;65.80
4509;DHT22;2267;48.816;9.230;2022-09-09T16:26:30;23.40;65.70
4509;DHT22;2267;48.816;9.230;2022-09-09T16:28:58;23.30;65.00
4509;DHT22;2267;48.816;9.230;2022-09-09T16:31:27;23.30;65.00
4509;DHT22;2267;48.816;9.230;2022-09-09T16:33:54;23.30;64.90
4509;DHT22;2267;48.816;9.230;2022-09-09T16:36:26;23.30;65.00
4509;DHT22;2267;48.816;9.230;2022-09-09T16:38:55;23.20;65.00
4509;DHT22;2267;48.816;9.230;2022-09-09T16:41:25;23.10;64.90
4509;DHT22;2267;48.816;9.230;2022-09-09T16:43:58;22.90;65.00
4509;DHT22;2267;48.816;9.230;2022-09-09T16:46:27;22.80;65.30
4509;DHT22;2267;48.816;9.230;2022-09-09T16:48:57;22.70;65.90
4509;DHT22;2267;48.816;9.230;2022-09-09T16:51:31;22.50;66.50
4509;DHT22;2267;48.816;9.230;2022-09-09T16:54:00;22.50;68.00
4509;DHT22;2267;48.816;9.230;2022-09-09T16:56:30;22.40;67.20
4509;DHT22;2267;48.816;9.230;2022-09-09T16:59:01;22.40;67.40
4509;DHT22;2267;48.816;9.230;2022-09-09T17:01:31;22.30;67.50
4509;DHT22;2267;48.816;9.230;2022-09-09T17:04:01;22.30;68.70
4509;DHT22;2267;48.816;9.230;2022-09-09T17:06:29;22.30;69.50
4509;DHT22;2267;48.816;9.230;2022-09-09T17:08:58;22.30;70.00
4509;DHT22;2267;48.816;9.230;2022-09-09T17:11:26;22.30;70.10
4509;DHT22;2267;48.816;9.230;2022-09-09T17:13:55;22.20;70.00
4509;DHT22;2267;48.816;9.230;2022-09-09T17:16:23;22.20;69.60
4509;DHT22;2267;48.816;9.230;2022-09-09T17:18:53;22.10;69.30
4509;DHT22;2267;48.816;9.230;2022-09-09T17:21:22;22.10;69.50
4509;DHT22;2267;48.816;9.230;2022-09-09T17:23:52;22.00;70.00
4509;DHT22;2267;48.816;9.230;2022-09-09T17:26:23;22.00;70.50
4509;DHT22;2267;48.816;9.230;2022-09-09T17:28:50;22.00;70.70
4509;DHT22;2267;48.816;9.230;2022-09-09T17:31:20;22.00;70.90
4509;DHT22;2267;48.816;9.230;2022-09-09T17:33:49;21.90;71.10
4509;DHT22;2267;48.816;9.230;2022-09-09T17:36:22;21.90;71.50
4509;DHT22;2267;48.816;9.230;2022-09-09T17:38:50;21.90;71.90
4509;DHT22;2267;48.816;9.230;2022-09-09T17:41:22;21.90;72.20
4509;DHT22;2267;48.816;9.230;2022-09-09T17:43:49;21.90;72.60
4509;DHT22;2267;48.816;9.230;2022-09-09T17:46:20;22.00;73.80
4509;DHT22;2267;48.816;9.230;2022-09-09T17:48:51;22.00;73.10
4509;DHT22;2267;48.816;9.230;2022-09-09T17:51:21;21.90;73.30
4509;DHT22;2267;48.816;9.230;2022-09-09T17:53:56;21.90;73.60
4509;DHT22;2267;48.816;9.230;2022-09-09T17:56:26;21.90;73.50
4509;DHT22;2267;48.816;9.230;2022-09-09T17:58:55;21.90;73.50
4509;DHT22;2267;48.816;9.230;2022-09-09T18:01:24;21.90;73.60
4509;DHT22;2267;48.816;9.230;2022-09-09T18:03:55;21.90;73.90
4509;DHT22;2267;48.816;9.230;2022-09-09T18:06:26;21.80;74.00
4509;DHT22;2267;48.816;9.230;2022-09-09T18:08:55;21.80;74.00
4509;DHT22;2267;48.816;9.230;2022-09-09T18:11:25;21.70;74.20
4509;DHT22;2267;48.816;9.230;2022-09-09T18:13:54;21.70;74.30
4509;DHT22;2267;48.816;9.230;2022-09-09T18:16:23;21.60;74.50
4509;DHT22;2267;48.816;9.230;2022-09-09T18:18:50;21.60;75.00
4509;DHT22;2267;48.816;9.230;2022-09-09T18:21:18;21.60;75.20
4509;DHT22;2267;48.816;9.230;2022-09-09T18:23:46;21.60;75.40
4509;DHT22;2267;48.816;9.230;2022-09-09T18:26:19;21.60;75.40
4509;DHT22;2267;48.816;9.230;2022-09-09T18:28:49;21.50;75.60
4509;DHT22;2267;48.816;9.230;2022-09-09T18:31:18;21.50;75.90